VTCC/CNX METAR and TAF weather

Enter ICAO airport designator
Station Type Date Time Source
VTCC METAR 2020/09/19 02:00 UTC NOAA

VTCC 190200Z VRB02KT 9999 BKN035 27/24 Q1003 NOSIG


Station Type Date Time Source
VTCC Decoded METAR 2020/09/19 02:00 UTC NOAA

Chiang Mai, Thailand (VTCC) 18-47N 098-59E 314M
Sep 18, 2020 - 10:00 PM EDT / 2020.09.19 0200 UTC
Wind: Variable at 2 MPH (2 KT):0
Visibility: greater than 7 mile(s):0
Sky conditions: mostly cloudy
Temperature: 80 F (27 C)
Dew Point: 75 F (24 C)
Relative Humidity: 83%
Pressure (altimeter): 29.62 in. Hg (1003 hPa)
ob: VTCC 190200Z VRB02KT 9999 BKN035 27/24 Q1003 NOSIG
cycle: 2

Station Type Date Time Source
VTCC TAF 2020/09/18 18:36 UTC NOAA

TAF VTCC 181700Z 1818/1924 36005KT 9999 SCT035
TEMPO 1906/1915 03015G30KT 4000 TSRA FEW018CB BKN030

Example: see airport list